createdAt,value
2022-07-27T00:01:20.016Z,18.50
2022-07-27T00:05:22.157Z,18.40
2022-07-27T00:09:24.112Z,18.40
2022-07-27T00:13:26.994Z,18.40
2022-07-27T00:17:29.056Z,18.40
2022-07-27T00:21:30.835Z,18.40
2022-07-27T00:25:32.741Z,18.40
2022-07-27T00:29:37.253Z,18.30
2022-07-27T00:33:41.814Z,18.30
2022-07-27T00:37:43.796Z,18.30
2022-07-27T00:41:46.206Z,18.30
2022-07-27T00:45:48.016Z,18.30
2022-07-27T00:49:50.373Z,18.20
2022-07-27T00:53:54.273Z,18.20
2022-07-27T00:57:59.054Z,18.20
2022-07-27T01:02:02.069Z,18.20
2022-07-27T01:06:04.586Z,18.20
2022-07-27T01:10:07.518Z,18.20
2022-07-27T01:14:13.479Z,18.10
2022-07-27T01:18:39.064Z,18.10
2022-07-27T01:22:41.115Z,18.10
2022-07-27T01:26:43.241Z,18.10
2022-07-27T01:30:45.371Z,18.10
2022-07-27T01:34:47.459Z,18.10
2022-07-27T01:38:49.538Z,18.00
2022-07-27T01:42:52.875Z,18.00
2022-07-27T01:46:54.695Z,18.00
2022-07-27T01:50:57.140Z,18.00
2022-07-27T01:55:00.814Z,17.90
2022-07-27T01:59:02.461Z,17.90
2022-07-27T02:03:06.592Z,17.90
2022-07-27T02:07:08.679Z,17.90
2022-07-27T02:11:10.569Z,17.90
2022-07-27T02:15:17.186Z,17.90
2022-07-27T02:19:20.999Z,17.90
2022-07-27T02:23:22.978Z,17.90
2022-07-27T02:27:25.165Z,17.90
2022-07-27T02:31:27.313Z,17.90
2022-07-27T02:35:35.096Z,17.90
2022-07-27T02:39:37.272Z,17.90
2022-07-27T02:43:39.308Z,17.80
2022-07-27T02:47:42.842Z,17.80
2022-07-27T02:51:47.242Z,17.80
2022-07-27T02:55:51.647Z,17.80
2022-07-27T02:59:57.362Z,17.80
2022-07-27T03:03:59.242Z,17.80
2022-07-27T03:08:01.549Z,17.80
2022-07-27T03:12:03.953Z,17.70
2022-07-27T03:16:06.487Z,17.60
2022-07-27T03:20:10.635Z,17.60
2022-07-27T03:24:12.782Z,17.60
2022-07-27T03:28:14.827Z,17.60
2022-07-27T03:32:16.541Z,17.60
2022-07-27T03:36:18.468Z,17.60
2022-07-27T03:40:21.146Z,17.60
2022-07-27T03:44:22.862Z,17.50
2022-07-27T03:48:27.469Z,17.50
2022-07-27T03:52:29.233Z,17.50
2022-07-27T03:56:31.283Z,17.50
2022-07-27T04:00:33.020Z,17.40
2022-07-27T04:04:34.786Z,17.40
2022-07-27T04:08:36.798Z,17.40
2022-07-27T04:12:40.105Z,17.40
2022-07-27T04:16:43.535Z,17.40
2022-07-27T04:20:45.846Z,17.40
2022-07-27T04:24:47.919Z,17.40
2022-07-27T04:28:49.975Z,17.40
2022-07-27T04:32:52.756Z,17.30
2022-07-27T04:46:50.999Z,17.30
2022-07-27T04:50:53.031Z,17.30
2022-07-27T04:54:55.423Z,17.30
2022-07-27T04:58:57.164Z,17.30
2022-07-27T05:02:59.049Z,17.40
2022-07-27T05:07:02.454Z,17.40
2022-07-27T05:11:04.615Z,17.50
2022-07-27T05:15:07.200Z,17.50
2022-07-27T05:19:09.706Z,17.70
2022-07-27T05:23:11.807Z,17.80
2022-07-27T05:27:14.163Z,17.90
2022-07-27T05:31:16.467Z,18.00
2022-07-27T05:35:18.625Z,18.10
2022-07-27T05:39:21.562Z,18.20
2022-07-27T05:43:23.705Z,18.20
2022-07-27T05:47:25.808Z,18.30
2022-07-27T05:51:27.855Z,18.40
2022-07-27T05:55:29.972Z,18.40
2022-07-27T05:59:31.896Z,18.40
2022-07-27T06:03:33.639Z,18.50
2022-07-27T06:07:35.782Z,18.60
2022-07-27T06:11:37.864Z,18.60
2022-07-27T06:15:39.603Z,18.70
2022-07-27T06:19:44.806Z,18.80
2022-07-27T06:23:46.549Z,18.80
2022-07-27T06:27:48.562Z,18.90
2022-07-27T06:31:50.348Z,19.10
2022-07-27T06:35:52.174Z,19.30
2022-07-27T06:39:55.835Z,19.50
2022-07-27T06:43:57.559Z,19.80
2022-07-27T06:47:59.451Z,20.00
2022-07-27T06:52:01.417Z,20.10
2022-07-27T06:56:04.341Z,20.30
2022-07-27T07:00:07.898Z,20.40
2022-07-27T07:04:09.996Z,20.50
2022-07-27T07:08:12.659Z,20.70
2022-07-27T07:12:14.702Z,20.80
2022-07-27T07:16:16.613Z,20.80
2022-07-27T07:20:18.699Z,20.90
2022-07-27T07:24:20.448Z,21.00
2022-07-27T07:28:22.356Z,21.00
2022-07-27T07:32:24.484Z,21.00
2022-07-27T07:36:26.310Z,21.00
2022-07-27T07:40:44.937Z,21.00
2022-07-27T07:44:47.163Z,21.00
2022-07-27T07:48:48.966Z,20.90
2022-07-27T07:52:53.501Z,20.90
2022-07-27T07:56:55.573Z,20.90
2022-07-27T08:00:58.355Z,20.90
2022-07-27T08:05:00.437Z,21.00
2022-07-27T08:09:02.241Z,21.00
2022-07-27T08:13:07.196Z,21.20
2022-07-27T08:17:12.398Z,21.30
2022-07-27T08:21:14.979Z,21.50
2022-07-27T08:25:17.110Z,21.70
2022-07-27T08:29:22.454Z,22.00
2022-07-27T08:33:28.069Z,22.30
2022-07-27T08:37:30.045Z,22.50
2022-07-27T08:41:42.064Z,22.50
2022-07-27T08:45:44.117Z,22.40
2022-07-27T08:49:49.494Z,22.20
2022-07-27T08:53:54.124Z,22.10
2022-07-27T08:58:00.692Z,22.10
2022-07-27T09:02:09.441Z,22.30
2022-07-27T09:06:11.942Z,22.50
2022-07-27T09:10:33.674Z,22.70
2022-07-27T09:14:39.364Z,22.70
2022-07-27T09:18:42.238Z,22.70
2022-07-27T09:22:48.605Z,22.60
2022-07-27T09:26:50.434Z,22.60
2022-07-27T09:30:52.800Z,22.70
2022-07-27T09:34:54.772Z,22.90
2022-07-27T09:39:04.420Z,23.10
2022-07-27T09:44:19.738Z,23.20
2022-07-27T09:47:36.031Z,23.20
2022-07-27T09:52:02.669Z,23.40
2022-07-27T09:56:12.012Z,23.50
2022-07-27T10:00:14.721Z,23.60
2022-07-27T10:04:18.009Z,23.60
2022-07-27T10:08:20.158Z,23.80
2022-07-27T10:12:21.887Z,24.00
2022-07-27T10:16:29.053Z,24.10
2022-07-27T10:20:33.557Z,24.10
2022-07-27T10:24:35.520Z,24.10
2022-07-27T10:29:12.193Z,24.10
2022-07-27T10:33:49.063Z,24.10
2022-07-27T10:38:12.105Z,24.20
2022-07-27T10:42:33.540Z,24.30
2022-07-27T10:46:58.044Z,24.50
2022-07-27T10:51:00.131Z,24.60
2022-07-27T10:55:05.876Z,24.90
2022-07-27T10:59:07.951Z,25.10
2022-07-27T11:03:20.115Z,25.20
2022-07-27T11:07:26.721Z,25.20
2022-07-27T11:11:32.137Z,25.30
2022-07-27T11:15:33.870Z,25.30
2022-07-27T11:19:35.911Z,25.30
2022-07-27T11:23:51.019Z,25.20
2022-07-27T11:27:54.406Z,25.20
2022-07-27T11:31:58.107Z,25.20
2022-07-27T11:36:05.489Z,25.30
2022-07-27T11:40:53.295Z,25.30
2022-07-27T11:44:30.520Z,25.40
2022-07-27T11:48:49.935Z,25.50
2022-07-27T11:53:01.577Z,25.50
2022-07-27T11:57:12.691Z,25.50
2022-07-27T12:01:33.584Z,25.50
2022-07-27T12:05:35.350Z,25.60
2022-07-27T12:09:43.256Z,25.50
2022-07-27T12:13:45.016Z,25.40
2022-07-27T12:17:47.106Z,25.10
2022-07-27T12:21:55.736Z,25.10
2022-07-27T12:26:16.700Z,25.10
2022-07-27T12:30:18.433Z,25.20
2022-07-27T12:34:20.424Z,25.20
2022-07-27T12:38:23.042Z,25.10
2022-07-27T12:42:37.401Z,25.00
2022-07-27T12:46:52.751Z,25.00
2022-07-27T12:51:04.592Z,25.10
2022-07-27T12:55:15.477Z,25.20
2022-07-27T12:59:22.167Z,25.40
2022-07-27T13:03:24.245Z,25.80
2022-07-27T13:07:26.258Z,26.00
2022-07-27T13:11:27.972Z,26.20
2022-07-27T13:15:30.079Z,26.30
2022-07-27T13:19:32.233Z,26.60
2022-07-27T13:23:34.286Z,26.90
2022-07-27T13:27:37.928Z,27.00
2022-07-27T13:31:43.596Z,26.90
2022-07-27T13:35:59.060Z,26.80
2022-07-27T13:40:02.906Z,26.60
2022-07-27T13:44:05.700Z,26.40
2022-07-27T13:48:07.740Z,26.30
2022-07-27T13:52:09.685Z,26.10
2022-07-27T13:56:11.737Z,26.10
2022-07-27T14:00:15.059Z,26.20
2022-07-27T14:04:16.803Z,26.40
2022-07-27T14:08:20.697Z,26.60
2022-07-27T14:12:22.455Z,27.30
2022-07-27T14:16:26.172Z,29.10
2022-07-27T14:20:27.915Z,31.30
2022-07-27T14:24:32.561Z,32.60
2022-07-27T14:28:38.496Z,32.40
2022-07-27T14:32:41.178Z,31.60
2022-07-27T14:36:43.299Z,30.70
2022-07-27T14:40:45.006Z,29.90
2022-07-27T14:44:47.011Z,29.20
2022-07-27T14:49:05.609Z,28.60
2022-07-27T14:53:08.455Z,28.10
2022-07-27T14:57:10.241Z,27.80
2022-07-27T15:01:12.471Z,27.60
2022-07-27T15:05:14.475Z,27.50
2022-07-27T15:09:17.008Z,27.30
2022-07-27T15:13:21.373Z,27.00
2022-07-27T15:17:24.552Z,26.90
2022-07-27T15:21:26.919Z,26.70
2022-07-27T15:25:28.742Z,26.50
2022-07-27T15:29:30.787Z,26.40
2022-07-27T15:33:32.544Z,26.40
2022-07-27T15:37:34.724Z,26.50
2022-07-27T15:41:38.911Z,26.70
2022-07-27T15:45:45.123Z,27.70
2022-07-27T15:49:46.840Z,29.30
2022-07-27T15:53:49.038Z,30.70
2022-07-27T15:57:50.836Z,31.90
2022-07-27T16:01:52.997Z,33.10
2022-07-27T16:05:55.617Z,33.70
2022-07-27T16:09:57.442Z,33.30
2022-07-27T16:14:01.564Z,32.40
2022-07-27T16:18:03.922Z,31.40
2022-07-27T16:22:06.067Z,30.40
2022-07-27T16:26:08.461Z,29.60
2022-07-27T16:30:10.670Z,29.00
2022-07-27T16:34:22.392Z,28.60
2022-07-27T16:38:24.735Z,28.30
2022-07-27T16:42:26.784Z,28.10
2022-07-27T16:46:28.976Z,27.80
2022-07-27T16:50:30.719Z,27.60
2022-07-27T16:58:45.788Z,27.20
2022-07-27T17:02:47.844Z,26.90
2022-07-27T17:06:49.995Z,26.60
2022-07-27T17:10:51.778Z,26.30
2022-07-27T17:14:54.007Z,26.10
2022-07-27T17:18:56.369Z,25.90
2022-07-27T17:23:01.186Z,25.80
2022-07-27T17:27:05.312Z,25.50
2022-07-27T17:31:12.819Z,25.50
2022-07-27T17:35:16.696Z,25.30
2022-07-27T17:39:18.462Z,25.20
2022-07-27T17:43:20.430Z,25.00
2022-07-27T17:47:22.152Z,25.00
2022-07-27T17:51:23.917Z,24.90
2022-07-27T17:55:25.668Z,24.90
2022-07-27T17:59:37.528Z,24.80
2022-07-27T18:03:40.295Z,24.70
2022-07-27T18:07:42.036Z,24.60
2022-07-27T18:11:43.793Z,24.40
2022-07-27T18:15:45.754Z,24.40
2022-07-27T18:19:47.824Z,24.20
2022-07-27T18:23:50.220Z,24.10
2022-07-27T18:27:54.707Z,24.00
2022-07-27T18:32:00.647Z,23.90
2022-07-27T18:36:02.742Z,23.80
2022-07-27T18:40:05.820Z,23.80
2022-07-27T18:44:07.833Z,23.60
2022-07-27T18:48:10.420Z,23.60
2022-07-27T18:52:12.427Z,23.50
2022-07-27T18:56:14.295Z,23.40
2022-07-27T19:00:16.074Z,23.30
2022-07-27T19:04:18.131Z,23.30
2022-07-27T19:08:20.729Z,23.20
2022-07-27T19:12:23.008Z,23.10
2022-07-27T19:16:31.156Z,23.00
2022-07-27T19:20:36.401Z,23.00
2022-07-27T19:24:51.473Z,22.80
2022-07-27T19:28:56.782Z,22.70
2022-07-27T19:32:59.182Z,22.60
2022-07-27T19:37:00.997Z,22.50
2022-07-27T19:41:08.340Z,22.50
2022-07-27T19:45:10.168Z,22.30
2022-07-27T19:49:14.672Z,22.20
2022-07-27T19:53:18.229Z,22.10
2022-07-27T19:57:19.973Z,21.90
2022-07-27T20:01:22.260Z,21.80
2022-07-27T20:05:24.338Z,21.70
2022-07-27T20:09:26.052Z,21.50
2022-07-27T20:13:28.405Z,21.40
2022-07-27T20:17:30.138Z,21.30
2022-07-27T20:21:32.315Z,21.10
2022-07-27T20:25:34.469Z,21.00
2022-07-27T20:29:36.225Z,20.90
2022-07-27T20:33:41.111Z,20.80
2022-07-27T20:37:46.426Z,20.60
2022-07-27T20:41:51.382Z,20.60
2022-07-27T20:45:57.203Z,20.40
2022-07-27T20:50:00.262Z,20.30
2022-07-27T20:54:01.961Z,20.30
2022-07-27T20:58:04.071Z,20.10
2022-07-27T21:02:06.181Z,20.00
2022-07-27T21:06:08.263Z,19.90
2022-07-27T21:10:11.681Z,19.80
2022-07-27T21:14:13.678Z,19.70
2022-07-27T21:18:16.321Z,19.60
2022-07-27T21:22:18.357Z,19.50
2022-07-27T21:26:20.488Z,19.40
2022-07-27T21:30:23.908Z,19.30
2022-07-27T21:34:28.029Z,19.20
2022-07-27T21:38:32.120Z,19.10
2022-07-27T21:42:34.067Z,19.00
2022-07-27T21:46:36.555Z,19.00
2022-07-27T21:50:38.587Z,18.90
2022-07-27T21:54:40.292Z,18.80
2022-07-27T21:58:43.561Z,18.70
2022-07-27T22:02:45.810Z,18.60
2022-07-27T22:06:47.715Z,18.60
2022-07-27T22:10:49.782Z,18.50
2022-07-27T22:14:51.490Z,18.40
2022-07-27T22:18:53.530Z,18.30
2022-07-27T22:22:57.824Z,18.30
2022-07-27T22:26:59.540Z,18.20
2022-07-27T22:31:22.150Z,18.10
2022-07-27T22:35:23.642Z,18.00
2022-07-27T22:39:25.368Z,18.00
2022-07-27T22:43:31.030Z,17.90
2022-07-27T22:47:35.573Z,17.80
2022-07-27T22:51:49.702Z,17.80
2022-07-27T22:55:54.787Z,17.70
2022-07-27T22:59:56.613Z,17.60
2022-07-27T23:03:59.682Z,17.50
2022-07-27T23:08:01.638Z,17.40
2022-07-27T23:12:04.178Z,17.40
2022-07-27T23:16:06.520Z,17.30
2022-07-27T23:20:09.043Z,17.30
2022-07-27T23:24:14.101Z,17.10
2022-07-27T23:28:17.148Z,17.00
2022-07-27T23:32:19.157Z,17.00
2022-07-27T23:36:21.321Z,16.90
2022-07-27T23:40:23.445Z,16.80
2022-07-27T23:44:25.160Z,16.80
2022-07-27T23:48:27.203Z,16.70
2022-07-27T23:52:30.967Z,16.60
2022-07-27T23:56:32.681Z,16.60
